sensor_id;sensor_type;location;lat;lon;timestamp;P1;durP1;ratioP1;P2;durP2;ratioP2
58017;SDS011;43810;50.860;19.226;2023-11-19T00:00:22;17.10;;;6.65;;
58017;SDS011;43810;50.860;19.226;2023-11-19T00:03:08;15.23;;;7.65;;
58017;SDS011;43810;50.860;19.226;2023-11-19T00:05:36;8.73;;;5.82;;
58017;SDS011;43810;50.860;19.226;2023-11-19T00:08:02;15.65;;;6.28;;
58017;SDS011;43810;50.860;19.226;2023-11-19T00:10:28;15.80;;;8.07;;
58017;SDS011;43810;50.860;19.226;2023-11-19T00:12:53;15.48;;;8.13;;
58017;SDS011;43810;50.860;19.226;2023-11-19T00:15:19;18.35;;;7.93;;
58017;SDS011;43810;50.860;19.226;2023-11-19T00:17:46;16.35;;;9.23;;
58017;SDS011;43810;50.860;19.226;2023-11-19T00:20:14;20.13;;;8.80;;
58017;SDS011;43810;50.860;19.226;2023-11-19T00:22:41;14.88;;;8.73;;
58017;SDS011;43810;50.860;19.226;2023-11-19T00:25:08;15.30;;;8.18;;
58017;SDS011;43810;50.860;19.226;2023-11-19T00:27:34;13.10;;;6.28;;
58017;SDS011;43810;50.860;19.226;2023-11-19T00:30:00;16.13;;;7.75;;
58017;SDS011;43810;50.860;19.226;2023-11-19T00:32:26;18.00;;;8.15;;
58017;SDS011;43810;50.860;19.226;2023-11-19T00:34:51;14.40;;;6.97;;
58017;SDS011;43810;50.860;19.226;2023-11-19T00:37:17;16.75;;;8.15;;
58017;SDS011;43810;50.860;19.226;2023-11-19T00:39:43;16.15;;;8.13;;
58017;SDS011;43810;50.860;19.226;2023-11-19T00:42:09;17.67;;;7.80;;
58017;SDS011;43810;50.860;19.226;2023-11-19T00:44:36;17.50;;;8.20;;
58017;SDS011;43810;50.860;19.226;2023-11-19T00:47:01;17.63;;;9.68;;
58017;SDS011;43810;50.860;19.226;2023-11-19T00:49:27;11.80;;;7.75;;
58017;SDS011;43810;50.860;19.226;2023-11-19T00:51:53;15.38;;;8.00;;
58017;SDS011;43810;50.860;19.226;2023-11-19T00:54:19;13.50;;;7.70;;
58017;SDS011;43810;50.860;19.226;2023-11-19T00:56:45;16.02;;;8.30;;
58017;SDS011;43810;50.860;19.226;2023-11-19T00:59:11;15.63;;;8.27;;
58017;SDS011;43810;50.860;19.226;2023-11-19T01:01:37;18.63;;;8.32;;
58017;SDS011;43810;50.860;19.226;2023-11-19T01:04:03;18.42;;;7.68;;
58017;SDS011;43810;50.860;19.226;2023-11-19T01:06:29;12.85;;;7.53;;
58017;SDS011;43810;50.860;19.226;2023-11-19T01:08:56;18.85;;;8.43;;
58017;SDS011;43810;50.860;19.226;2023-11-19T01:11:24;17.88;;;8.68;;
58017;SDS011;43810;50.860;19.226;2023-11-19T01:13:51;19.80;;;7.95;;
58017;SDS011;43810;50.860;19.226;2023-11-19T01:16:17;17.90;;;8.57;;
58017;SDS011;43810;50.860;19.226;2023-11-19T01:18:44;17.13;;;8.23;;
58017;SDS011;43810;50.860;19.226;2023-11-19T01:21:12;14.40;;;7.88;;
58017;SDS011;43810;50.860;19.226;2023-11-19T01:23:40;16.55;;;7.15;;
58017;SDS011;43810;50.860;19.226;2023-11-19T01:26:09;16.73;;;8.35;;
58017;SDS011;43810;50.860;19.226;2023-11-19T01:28:36;14.95;;;8.80;;
58017;SDS011;43810;50.860;19.226;2023-11-19T01:31:02;15.85;;;7.57;;
58017;SDS011;43810;50.860;19.226;2023-11-19T01:33:29;16.63;;;6.63;;
58017;SDS011;43810;50.860;19.226;2023-11-19T01:35:55;12.80;;;7.60;;
58017;SDS011;43810;50.860;19.226;2023-11-19T01:38:24;17.40;;;7.30;;
58017;SDS011;43810;50.860;19.226;2023-11-19T01:40:50;14.35;;;7.35;;
58017;SDS011;43810;50.860;19.226;2023-11-19T01:43:58;12.50;;;6.80;;
58017;SDS011;43810;50.860;19.226;2023-11-19T01:46:08;16.00;;;7.50;;
58017;SDS011;43810;50.860;19.226;2023-11-19T01:48:38;11.43;;;7.30;;
58017;SDS011;43810;50.860;19.226;2023-11-19T01:51:08;17.95;;;7.63;;
58017;SDS011;43810;50.860;19.226;2023-11-19T01:53:34;9.80;;;6.00;;
58017;SDS011;43810;50.860;19.226;2023-11-19T01:56:02;15.00;;;7.30;;
58017;SDS011;43810;50.860;19.226;2023-11-19T01:58:30;14.52;;;7.20;;
58017;SDS011;43810;50.860;19.226;2023-11-19T02:00:56;11.77;;;7.03;;
58017;SDS011;43810;50.860;19.226;2023-11-19T02:03:23;14.70;;;7.75;;
58017;SDS011;43810;50.860;19.226;2023-11-19T02:05:51;11.43;;;6.20;;
58017;SDS011;43810;50.860;19.226;2023-11-19T02:08:18;15.93;;;7.93;;
58017;SDS011;43810;50.860;19.226;2023-11-19T02:10:44;14.63;;;6.35;;
58017;SDS011;43810;50.860;19.226;2023-11-19T02:13:11;13.73;;;7.22;;
58017;SDS011;43810;50.860;19.226;2023-11-19T02:15:39;13.38;;;6.72;;
58017;SDS011;43810;50.860;19.226;2023-11-19T02:18:19;17.00;;;6.57;;
58017;SDS011;43810;50.860;19.226;2023-11-19T02:20:45;15.20;;;7.22;;
58017;SDS011;43810;50.860;19.226;2023-11-19T02:23:12;10.00;;;6.32;;
58017;SDS011;43810;50.860;19.226;2023-11-19T02:25:38;16.00;;;6.90;;
58017;SDS011;43810;50.860;19.226;2023-11-19T02:28:06;14.85;;;6.53;;
58017;SDS011;43810;50.860;19.226;2023-11-19T02:30:32;15.27;;;6.35;;
58017;SDS011;43810;50.860;19.226;2023-11-19T02:32:58;14.48;;;6.50;;
58017;SDS011;43810;50.860;19.226;2023-11-19T02:35:28;12.63;;;6.07;;
58017;SDS011;43810;50.860;19.226;2023-11-19T02:37:57;11.60;;;6.60;;
58017;SDS011;43810;50.860;19.226;2023-11-19T02:40:29;10.70;;;6.15;;
58017;SDS011;43810;50.860;19.226;2023-11-19T02:42:55;12.35;;;6.13;;
58017;SDS011;43810;50.860;19.226;2023-11-19T02:45:23;10.70;;;5.97;;
58017;SDS011;43810;50.860;19.226;2023-11-19T02:47:49;16.30;;;6.88;;
58017;SDS011;43810;50.860;19.226;2023-11-19T02:50:15;16.02;;;7.05;;
58017;SDS011;43810;50.860;19.226;2023-11-19T02:52:43;11.27;;;6.10;;
58017;SDS011;43810;50.860;19.226;2023-11-19T02:55:10;12.68;;;5.57;;
58017;SDS011;43810;50.860;19.226;2023-11-19T02:57:38;15.77;;;7.00;;
58017;SDS011;43810;50.860;19.226;2023-11-19T03:00:12;13.45;;;6.13;;
58017;SDS011;43810;50.860;19.226;2023-11-19T03:02:40;16.80;;;6.75;;
58017;SDS011;43810;50.860;19.226;2023-11-19T03:05:12;14.77;;;6.15;;
58017;SDS011;43810;50.860;19.226;2023-11-19T03:07:43;10.27;;;5.63;;
58017;SDS011;43810;50.860;19.226;2023-11-19T03:10:12;13.48;;;6.03;;
58017;SDS011;43810;50.860;19.226;2023-11-19T03:12:41;10.82;;;5.25;;
58017;SDS011;43810;50.860;19.226;2023-11-19T03:15:08;13.43;;;6.00;;
58017;SDS011;43810;50.860;19.226;2023-11-19T03:17:40;10.85;;;6.57;;
58017;SDS011;43810;50.860;19.226;2023-11-19T03:20:07;12.40;;;6.38;;
58017;SDS011;43810;50.860;19.226;2023-11-19T03:22:42;15.40;;;6.68;;
58017;SDS011;43810;50.860;19.226;2023-11-19T03:25:09;9.35;;;5.25;;
58017;SDS011;43810;50.860;19.226;2023-11-19T03:27:36;12.68;;;6.35;;
58017;SDS011;43810;50.860;19.226;2023-11-19T03:30:02;11.20;;;6.03;;
58017;SDS011;43810;50.860;19.226;2023-11-19T03:32:31;13.40;;;6.68;;
58017;SDS011;43810;50.860;19.226;2023-11-19T03:34:57;10.88;;;6.07;;
58017;SDS011;43810;50.860;19.226;2023-11-19T03:37:23;7.90;;;5.72;;
58017;SDS011;43810;50.860;19.226;2023-11-19T03:39:49;13.02;;;6.72;;
58017;SDS011;43810;50.860;19.226;2023-11-19T03:42:15;14.70;;;6.20;;
58017;SDS011;43810;50.860;19.226;2023-11-19T03:44:40;12.13;;;5.35;;
58017;SDS011;43810;50.860;19.226;2023-11-19T03:47:06;12.15;;;7.35;;
58017;SDS011;43810;50.860;19.226;2023-11-19T03:49:32;11.77;;;6.55;;
58017;SDS011;43810;50.860;19.226;2023-11-19T03:51:58;14.40;;;6.68;;
58017;SDS011;43810;50.860;19.226;2023-11-19T03:54:23;11.40;;;6.38;;
58017;SDS011;43810;50.860;19.226;2023-11-19T03:56:50;11.18;;;4.70;;
58017;SDS011;43810;50.860;19.226;2023-11-19T03:59:15;14.43;;;6.18;;
58017;SDS011;43810;50.860;19.226;2023-11-19T04:01:41;7.70;;;4.18;;
58017;SDS011;43810;50.860;19.226;2023-11-19T04:04:07;14.25;;;6.15;;
58017;SDS011;43810;50.860;19.226;2023-11-19T04:06:32;10.55;;;5.47;;
58017;SDS011;43810;50.860;19.226;2023-11-19T04:08:58;13.43;;;5.32;;
58017;SDS011;43810;50.860;19.226;2023-11-19T04:11:24;9.40;;;4.70;;
58017;SDS011;43810;50.860;19.226;2023-11-19T04:13:49;12.23;;;5.88;;
58017;SDS011;43810;50.860;19.226;2023-11-19T04:16:15;9.80;;;5.18;;
58017;SDS011;43810;50.860;19.226;2023-11-19T04:18:41;7.97;;;6.13;;
58017;SDS011;43810;50.860;19.226;2023-11-19T04:21:07;12.15;;;5.50;;
58017;SDS011;43810;50.860;19.226;2023-11-19T04:23:33;13.75;;;6.95;;
58017;SDS011;43810;50.860;19.226;2023-11-19T04:26:01;16.27;;;6.93;;
58017;SDS011;43810;50.860;19.226;2023-11-19T04:28:29;15.05;;;6.30;;
58017;SDS011;43810;50.860;19.226;2023-11-19T04:30:56;10.63;;;4.65;;
58017;SDS011;43810;50.860;19.226;2023-11-19T04:33:21;12.30;;;6.20;;
58017;SDS011;43810;50.860;19.226;2023-11-19T04:35:47;14.38;;;6.47;;
58017;SDS011;43810;50.860;19.226;2023-11-19T04:38:13;14.40;;;6.75;;
58017;SDS011;43810;50.860;19.226;2023-11-19T04:40:38;17.80;;;6.43;;
58017;SDS011;43810;50.860;19.226;2023-11-19T04:43:04;12.88;;;6.43;;
58017;SDS011;43810;50.860;19.226;2023-11-19T04:45:30;17.52;;;6.72;;
58017;SDS011;43810;50.860;19.226;2023-11-19T04:47:57;17.65;;;6.85;;
58017;SDS011;43810;50.860;19.226;2023-11-19T04:50:23;16.17;;;7.32;;
58017;SDS011;43810;50.860;19.226;2023-11-19T04:52:48;15.23;;;7.60;;
58017;SDS011;43810;50.860;19.226;2023-11-19T04:55:14;19.52;;;8.38;;
58017;SDS011;43810;50.860;19.226;2023-11-19T04:57:40;13.68;;;8.10;;
58017;SDS011;43810;50.860;19.226;2023-11-19T05:00:06;15.23;;;8.27;;
58017;SDS011;43810;50.860;19.226;2023-11-19T05:02:36;16.92;;;6.93;;
58017;SDS011;43810;50.860;19.226;2023-11-19T05:05:03;15.15;;;6.85;;
58017;SDS011;43810;50.860;19.226;2023-11-19T05:07:31;19.65;;;9.60;;
58017;SDS011;43810;50.860;19.226;2023-11-19T05:09:57;14.90;;;6.80;;
58017;SDS011;43810;50.860;19.226;2023-11-19T05:12:23;18.27;;;8.77;;
58017;SDS011;43810;50.860;19.226;2023-11-19T05:14:50;20.08;;;9.50;;
58017;SDS011;43810;50.860;19.226;2023-11-19T05:17:16;23.10;;;9.50;;
58017;SDS011;43810;50.860;19.226;2023-11-19T05:19:44;15.85;;;7.15;;
58017;SDS011;43810;50.860;19.226;2023-11-19T05:22:10;15.30;;;8.30;;
58017;SDS011;43810;50.860;19.226;2023-11-19T05:24:35;17.58;;;9.43;;
58017;SDS011;43810;50.860;19.226;2023-11-19T05:27:01;17.75;;;8.30;;
58017;SDS011;43810;50.860;19.226;2023-11-19T05:29:27;20.17;;;8.75;;
58017;SDS011;43810;50.860;19.226;2023-11-19T05:31:53;15.27;;;8.15;;
58017;SDS011;43810;50.860;19.226;2023-11-19T05:34:21;16.67;;;7.20;;
58017;SDS011;43810;50.860;19.226;2023-11-19T05:36:46;17.67;;;7.40;;
58017;SDS011;43810;50.860;19.226;2023-11-19T05:39:13;20.40;;;7.72;;
58017;SDS011;43810;50.860;19.226;2023-11-19T05:41:38;17.98;;;7.40;;
58017;SDS011;43810;50.860;19.226;2023-11-19T05:44:04;19.65;;;8.98;;
58017;SDS011;43810;50.860;19.226;2023-11-19T05:46:30;20.30;;;9.38;;
58017;SDS011;43810;50.860;19.226;2023-11-19T05:48:56;15.18;;;7.43;;
58017;SDS011;43810;50.860;19.226;2023-11-19T05:51:21;17.27;;;8.30;;
58017;SDS011;43810;50.860;19.226;2023-11-19T05:53:49;19.02;;;8.65;;
58017;SDS011;43810;50.860;19.226;2023-11-19T05:56:15;19.65;;;7.90;;
58017;SDS011;43810;50.860;19.226;2023-11-19T05:58:47;14.82;;;8.20;;
58017;SDS011;43810;50.860;19.226;2023-11-19T06:01:14;19.52;;;9.05;;
58017;SDS011;43810;50.860;19.226;2023-11-19T06:03:40;16.98;;;8.68;;
58017;SDS011;43810;50.860;19.226;2023-11-19T06:06:08;19.38;;;8.70;;
58017;SDS011;43810;50.860;19.226;2023-11-19T06:08:35;20.92;;;10.32;;
58017;SDS011;43810;50.860;19.226;2023-11-19T06:11:00;22.23;;;9.13;;
58017;SDS011;43810;50.860;19.226;2023-11-19T06:13:27;21.90;;;9.13;;
58017;SDS011;43810;50.860;19.226;2023-11-19T06:15:52;16.60;;;8.70;;
58017;SDS011;43810;50.860;19.226;2023-11-19T06:18:18;18.88;;;8.95;;
58017;SDS011;43810;50.860;19.226;2023-11-19T06:20:45;21.13;;;9.68;;
58017;SDS011;43810;50.860;19.226;2023-11-19T06:23:11;20.08;;;8.88;;
58017;SDS011;43810;50.860;19.226;2023-11-19T06:25:36;21.67;;;10.95;;
58017;SDS011;43810;50.860;19.226;2023-11-19T06:28:03;22.60;;;9.90;;
58017;SDS011;43810;50.860;19.226;2023-11-19T06:30:28;15.18;;;7.28;;
58017;SDS011;43810;50.860;19.226;2023-11-19T06:32:56;15.52;;;8.05;;
58017;SDS011;43810;50.860;19.226;2023-11-19T06:35:21;15.48;;;8.07;;
58017;SDS011;43810;50.860;19.226;2023-11-19T06:37:47;18.60;;;9.02;;
58017;SDS011;43810;50.860;19.226;2023-11-19T06:40:13;18.40;;;8.48;;
58017;SDS011;43810;50.860;19.226;2023-11-19T06:42:41;18.92;;;8.20;;
58017;SDS011;43810;50.860;19.226;2023-11-19T06:45:06;20.10;;;8.70;;
58017;SDS011;43810;50.860;19.226;2023-11-19T06:47:32;17.55;;;8.82;;
58017;SDS011;43810;50.860;19.226;2023-11-19T06:49:58;17.00;;;7.70;;
58017;SDS011;43810;50.860;19.226;2023-11-19T06:52:24;19.95;;;10.13;;
58017;SDS011;43810;50.860;19.226;2023-11-19T06:54:50;20.35;;;8.55;;
58017;SDS011;43810;50.860;19.226;2023-11-19T06:57:16;23.88;;;9.20;;
58017;SDS011;43810;50.860;19.226;2023-11-19T06:59:42;18.02;;;9.35;;
58017;SDS011;43810;50.860;19.226;2023-11-19T07:02:08;18.58;;;8.70;;
58017;SDS011;43810;50.860;19.226;2023-11-19T07:04:34;21.35;;;9.02;;
58017;SDS011;43810;50.860;19.226;2023-11-19T07:07:00;20.77;;;9.63;;
58017;SDS011;43810;50.860;19.226;2023-11-19T07:09:26;16.80;;;9.18;;
58017;SDS011;43810;50.860;19.226;2023-11-19T07:11:52;19.38;;;8.85;;
58017;SDS011;43810;50.860;19.226;2023-11-19T07:14:18;21.52;;;9.40;;
58017;SDS011;43810;50.860;19.226;2023-11-19T07:16:44;17.95;;;7.25;;
58017;SDS011;43810;50.860;19.226;2023-11-19T07:19:11;15.68;;;7.80;;
58017;SDS011;43810;50.860;19.226;2023-11-19T07:21:40;25.73;;;10.18;;
58017;SDS011;43810;50.860;19.226;2023-11-19T07:24:09;14.93;;;7.10;;
58017;SDS011;43810;50.860;19.226;2023-11-19T07:26:36;22.02;;;8.25;;
58017;SDS011;43810;50.860;19.226;2023-11-19T07:29:02;16.58;;;6.90;;
58017;SDS011;43810;50.860;19.226;2023-11-19T07:31:28;19.20;;;7.40;;
58017;SDS011;43810;50.860;19.226;2023-11-19T07:33:54;15.30;;;8.13;;
58017;SDS011;43810;50.860;19.226;2023-11-19T07:36:20;16.63;;;6.72;;
58017;SDS011;43810;50.860;19.226;2023-11-19T07:38:45;13.82;;;6.55;;
58017;SDS011;43810;50.860;19.226;2023-11-19T07:41:13;19.42;;;8.25;;
58017;SDS011;43810;50.860;19.226;2023-11-19T07:43:39;15.73;;;7.63;;
58017;SDS011;43810;50.860;19.226;2023-11-19T07:46:09;16.45;;;7.80;;
58017;SDS011;43810;50.860;19.226;2023-11-19T07:48:36;15.38;;;6.75;;
58017;SDS011;43810;50.860;19.226;2023-11-19T07:51:02;17.05;;;6.97;;
58017;SDS011;43810;50.860;19.226;2023-11-19T07:53:27;13.25;;;6.68;;
58017;SDS011;43810;50.860;19.226;2023-11-19T07:55:53;11.00;;;5.93;;
58017;SDS011;43810;50.860;19.226;2023-11-19T07:58:19;16.10;;;7.97;;
58017;SDS011;43810;50.860;19.226;2023-11-19T08:00:45;15.52;;;6.93;;
58017;SDS011;43810;50.860;19.226;2023-11-19T08:03:10;13.95;;;5.97;;
58017;SDS011;43810;50.860;19.226;2023-11-19T08:05:36;15.38;;;6.97;;
58017;SDS011;43810;50.860;19.226;2023-11-19T08:08:02;16.58;;;7.65;;
58017;SDS011;43810;50.860;19.226;2023-11-19T08:10:28;15.35;;;7.47;;
58017;SDS011;43810;50.860;19.226;2023-11-19T08:12:54;17.50;;;7.68;;
58017;SDS011;43810;50.860;19.226;2023-11-19T08:15:20;16.52;;;7.88;;
58017;SDS011;43810;50.860;19.226;2023-11-19T08:17:46;14.30;;;7.15;;
58017;SDS011;43810;50.860;19.226;2023-11-19T08:20:12;16.13;;;6.72;;
58017;SDS011;43810;50.860;19.226;2023-11-19T08:22:38;19.17;;;8.93;;
58017;SDS011;43810;50.860;19.226;2023-11-19T08:25:05;15.98;;;7.50;;
58017;SDS011;43810;50.860;19.226;2023-11-19T08:27:31;18.55;;;7.05;;
58017;SDS011;43810;50.860;19.226;2023-11-19T08:30:05;20.35;;;8.07;;
58017;SDS011;43810;50.860;19.226;2023-11-19T08:32:31;12.90;;;7.20;;
58017;SDS011;43810;50.860;19.226;2023-11-19T08:34:58;17.10;;;7.90;;
58017;SDS011;43810;50.860;19.226;2023-11-19T08:37:23;13.38;;;6.85;;
58017;SDS011;43810;50.860;19.226;2023-11-19T08:39:51;17.40;;;7.93;;
58017;SDS011;43810;50.860;19.226;2023-11-19T08:42:17;18.10;;;7.63;;
58017;SDS011;43810;50.860;19.226;2023-11-19T08:44:43;14.63;;;7.93;;
58017;SDS011;43810;50.860;19.226;2023-11-19T08:47:09;15.82;;;7.38;;
58017;SDS011;43810;50.860;19.226;2023-11-19T08:49:36;18.13;;;7.65;;
58017;SDS011;43810;50.860;19.226;2023-11-19T08:52:02;14.63;;;6.80;;
58017;SDS011;43810;50.860;19.226;2023-11-19T08:54:28;18.80;;;7.93;;
58017;SDS011;43810;50.860;19.226;2023-11-19T08:56:53;18.95;;;8.00;;
58017;SDS011;43810;50.860;19.226;2023-11-19T08:59:19;18.90;;;9.05;;
58017;SDS011;43810;50.860;19.226;2023-11-19T09:01:45;21.00;;;9.05;;
58017;SDS011;43810;50.860;19.226;2023-11-19T09:04:11;17.17;;;8.70;;
58017;SDS011;43810;50.860;19.226;2023-11-19T09:06:36;13.00;;;7.13;;
58017;SDS011;43810;50.860;19.226;2023-11-19T09:09:02;18.80;;;8.25;;
58017;SDS011;43810;50.860;19.226;2023-11-19T09:11:30;15.10;;;7.20;;
58017;SDS011;43810;50.860;19.226;2023-11-19T09:13:56;15.48;;;8.27;;
58017;SDS011;43810;50.860;19.226;2023-11-19T09:16:22;19.85;;;8.95;;
58017;SDS011;43810;50.860;19.226;2023-11-19T09:18:48;19.80;;;9.10;;
58017;SDS011;43810;50.860;19.226;2023-11-19T09:21:13;23.02;;;8.07;;
58017;SDS011;43810;50.860;19.226;2023-11-19T09:23:39;26.92;;;10.30;;
58017;SDS011;43810;50.860;19.226;2023-11-19T09:26:05;16.15;;;8.70;;
58017;SDS011;43810;50.860;19.226;2023-11-19T09:28:32;14.57;;;8.50;;
58017;SDS011;43810;50.860;19.226;2023-11-19T09:30:57;19.50;;;9.80;;
58017;SDS011;43810;50.860;19.226;2023-11-19T09:33:24;24.05;;;10.02;;
58017;SDS011;43810;50.860;19.226;2023-11-19T09:35:50;20.23;;;8.27;;
58017;SDS011;43810;50.860;19.226;2023-11-19T09:38:16;23.20;;;8.25;;
58017;SDS011;43810;50.860;19.226;2023-11-19T09:40:42;21.33;;;8.73;;
58017;SDS011;43810;50.860;19.226;2023-11-19T09:43:08;15.48;;;6.88;;
58017;SDS011;43810;50.860;19.226;2023-11-19T09:45:40;15.68;;;7.68;;
58017;SDS011;43810;50.860;19.226;2023-11-19T09:48:16;15.60;;;7.57;;
58017;SDS011;43810;50.860;19.226;2023-11-19T09:50:44;21.35;;;8.40;;
58017;SDS011;43810;50.860;19.226;2023-11-19T09:53:12;12.70;;;6.10;;
58017;SDS011;43810;50.860;19.226;2023-11-19T09:55:39;18.42;;;6.65;;
58017;SDS011;43810;50.860;19.226;2023-11-19T09:58:06;15.35;;;7.78;;
58017;SDS011;43810;50.860;19.226;2023-11-19T10:00:32;16.77;;;6.80;;
58017;SDS011;43810;50.860;19.226;2023-11-19T10:02:59;17.52;;;5.80;;
58017;SDS011;43810;50.860;19.226;2023-11-19T10:05:25;16.52;;;7.35;;
58017;SDS011;43810;50.860;19.226;2023-11-19T10:07:52;16.05;;;7.25;;
58017;SDS011;43810;50.860;19.226;2023-11-19T10:10:18;20.02;;;7.72;;
58017;SDS011;43810;50.860;19.226;2023-11-19T10:12:47;14.43;;;6.97;;
58017;SDS011;43810;50.860;19.226;2023-11-19T10:15:17;17.73;;;7.72;;
58017;SDS011;43810;50.860;19.226;2023-11-19T10:17:49;13.07;;;6.75;;
58017;SDS011;43810;50.860;19.226;2023-11-19T10:20:15;14.50;;;6.55;;
58017;SDS011;43810;50.860;19.226;2023-11-19T10:22:41;13.38;;;6.45;;
58017;SDS011;43810;50.860;19.226;2023-11-19T10:25:25;14.88;;;6.63;;
58017;SDS011;43810;50.860;19.226;2023-11-19T10:27:52;13.77;;;5.93;;
58017;SDS011;43810;50.860;19.226;2023-11-19T10:30:22;10.98;;;5.22;;
58017;SDS011;43810;50.860;19.226;2023-11-19T10:35:37;10.80;;;5.40;;
58017;SDS011;43810;50.860;19.226;2023-11-19T10:38:19;7.82;;;4.53;;
58017;SDS011;43810;50.860;19.226;2023-11-19T10:40:45;11.20;;;4.90;;
58017;SDS011;43810;50.860;19.226;2023-11-19T10:43:11;9.32;;;5.15;;
58017;SDS011;43810;50.860;19.226;2023-11-19T10:45:37;14.45;;;5.28;;
58017;SDS011;43810;50.860;19.226;2023-11-19T10:48:04;8.77;;;5.15;;
58017;SDS011;43810;50.860;19.226;2023-11-19T10:50:34;12.95;;;4.80;;
58017;SDS011;43810;50.860;19.226;2023-11-19T10:53:02;9.88;;;5.68;;
58017;SDS011;43810;50.860;19.226;2023-11-19T10:55:29;9.52;;;4.25;;
58017;SDS011;43810;50.860;19.226;2023-11-19T10:58:00;13.02;;;6.35;;
58017;SDS011;43810;50.860;19.226;2023-11-19T11:00:30;12.25;;;4.38;;
58017;SDS011;43810;50.860;19.226;2023-11-19T11:03:18;9.98;;;4.78;;
58017;SDS011;43810;50.860;19.226;2023-11-19T11:05:46;13.95;;;5.00;;
58017;SDS011;43810;50.860;19.226;2023-11-19T11:08:13;11.02;;;5.43;;
58017;SDS011;43810;50.860;19.226;2023-11-19T11:10:39;9.65;;;4.80;;
58017;SDS011;43810;50.860;19.226;2023-11-19T11:13:09;12.07;;;5.63;;
58017;SDS011;43810;50.860;19.226;2023-11-19T11:15:37;11.38;;;4.72;;
58017;SDS011;43810;50.860;19.226;2023-11-19T11:18:04;15.23;;;5.35;;
58017;SDS011;43810;50.860;19.226;2023-11-19T11:20:33;8.52;;;4.80;;
58017;SDS011;43810;50.860;19.226;2023-11-19T11:31:35;12.73;;;4.43;;
58017;SDS011;43810;50.860;19.226;2023-11-19T11:39:35;14.15;;;6.95;;
58017;SDS011;43810;50.860;19.226;2023-11-19T11:42:50;11.43;;;6.18;;
58017;SDS011;43810;50.860;19.226;2023-11-19T11:50:14;13.85;;;5.60;;
58017;SDS011;43810;50.860;19.226;2023-11-19T11:55:25;17.00;;;7.53;;
58017;SDS011;43810;50.860;19.226;2023-11-19T11:57:51;18.83;;;7.15;;
58017;SDS011;43810;50.860;19.226;2023-11-19T12:03:00;16.88;;;7.13;;
58017;SDS011;43810;50.860;19.226;2023-11-19T12:07:54;13.30;;;6.32;;
58017;SDS011;43810;50.860;19.226;2023-11-19T12:10:23;17.98;;;6.47;;
58017;SDS011;43810;50.860;19.226;2023-11-19T12:12:52;13.23;;;6.85;;
58017;SDS011;43810;50.860;19.226;2023-11-19T12:15:18;15.82;;;7.07;;
58017;SDS011;43810;50.860;19.226;2023-11-19T12:17:50;13.15;;;6.20;;
58017;SDS011;43810;50.860;19.226;2023-11-19T12:20:17;15.10;;;6.25;;
58017;SDS011;43810;50.860;19.226;2023-11-19T12:22:44;8.10;;;5.80;;
58017;SDS011;43810;50.860;19.226;2023-11-19T12:25:12;12.55;;;5.97;;
58017;SDS011;43810;50.860;19.226;2023-11-19T12:27:42;11.98;;;6.90;;
58017;SDS011;43810;50.860;19.226;2023-11-19T12:30:10;17.98;;;6.53;;
58017;SDS011;43810;50.860;19.226;2023-11-19T12:32:39;14.93;;;6.82;;
58017;SDS011;43810;50.860;19.226;2023-11-19T12:35:09;10.10;;;6.20;;
58017;SDS011;43810;50.860;19.226;2023-11-19T12:37:42;13.20;;;6.10;;
58017;SDS011;43810;50.860;19.226;2023-11-19T12:40:16;12.98;;;5.80;;
58017;SDS011;43810;50.860;19.226;2023-11-19T12:42:46;14.68;;;5.70;;
58017;SDS011;43810;50.860;19.226;2023-11-19T12:45:13;11.52;;;6.00;;
58017;SDS011;43810;50.860;19.226;2023-11-19T12:47:39;9.43;;;6.15;;
58017;SDS011;43810;50.860;19.226;2023-11-19T12:50:06;20.88;;;6.75;;
58017;SDS011;43810;50.860;19.226;2023-11-19T12:52:37;16.80;;;7.10;;
58017;SDS011;43810;50.860;19.226;2023-11-19T12:55:03;15.73;;;7.30;;
58017;SDS011;43810;50.860;19.226;2023-11-19T12:57:48;13.80;;;7.53;;
58017;SDS011;43810;50.860;19.226;2023-11-19T13:00:20;14.50;;;6.97;;
58017;SDS011;43810;50.860;19.226;2023-11-19T13:02:51;16.55;;;9.57;;
58017;SDS011;43810;50.860;19.226;2023-11-19T13:05:26;16.85;;;7.05;;
58017;SDS011;43810;50.860;19.226;2023-11-19T13:10:34;16.40;;;8.15;;
58017;SDS011;43810;50.860;19.226;2023-11-19T13:13:16;17.77;;;8.55;;
58017;SDS011;43810;50.860;19.226;2023-11-19T13:15:42;16.33;;;7.50;;
58017;SDS011;43810;50.860;19.226;2023-11-19T13:18:10;15.75;;;7.80;;
58017;SDS011;43810;50.860;19.226;2023-11-19T13:20:36;15.52;;;7.60;;
58017;SDS011;43810;50.860;19.226;2023-11-19T13:23:02;19.63;;;8.75;;
58017;SDS011;43810;50.860;19.226;2023-11-19T13:25:32;18.15;;;8.20;;
58017;SDS011;43810;50.860;19.226;2023-11-19T13:27:58;27.58;;;9.68;;
58017;SDS011;43810;50.860;19.226;2023-11-19T13:30:24;22.45;;;9.25;;
58017;SDS011;43810;50.860;19.226;2023-11-19T13:32:51;19.35;;;8.77;;
58017;SDS011;43810;50.860;19.226;2023-11-19T13:35:18;14.18;;;8.05;;
58017;SDS011;43810;50.860;19.226;2023-11-19T13:37:44;15.93;;;8.43;;
58017;SDS011;43810;50.860;19.226;2023-11-19T13:40:10;17.55;;;8.38;;
58017;SDS011;43810;50.860;19.226;2023-11-19T13:42:42;15.82;;;8.20;;
58017;SDS011;43810;50.860;19.226;2023-11-19T13:47:38;21.92;;;10.25;;
58017;SDS011;43810;50.860;19.226;2023-11-19T13:50:07;20.48;;;9.32;;
58017;SDS011;43810;50.860;19.226;2023-11-19T13:52:37;24.95;;;10.43;;
58017;SDS011;43810;50.860;19.226;2023-11-19T13:55:07;17.25;;;7.80;;
58017;SDS011;43810;50.860;19.226;2023-11-19T13:57:34;18.55;;;9.25;;
58017;SDS011;43810;50.860;19.226;2023-11-19T14:00:04;24.65;;;11.20;;
58017;SDS011;43810;50.860;19.226;2023-11-19T14:02:49;19.50;;;10.55;;
58017;SDS011;43810;50.860;19.226;2023-11-19T14:05:16;21.25;;;11.85;;
58017;SDS011;43810;50.860;19.226;2023-11-19T14:07:44;20.75;;;10.75;;
58017;SDS011;43810;50.860;19.226;2023-11-19T14:10:14;22.42;;;11.10;;
58017;SDS011;43810;50.860;19.226;2023-11-19T14:12:40;26.48;;;11.45;;
58017;SDS011;43810;50.860;19.226;2023-11-19T14:15:07;33.35;;;14.32;;
58017;SDS011;43810;50.860;19.226;2023-11-19T14:17:42;32.47;;;13.88;;
58017;SDS011;43810;50.860;19.226;2023-11-19T14:20:09;27.30;;;12.93;;
58017;SDS011;43810;50.860;19.226;2023-11-19T14:22:44;28.70;;;14.35;;
58017;SDS011;43810;50.860;19.226;2023-11-19T14:25:14;40.58;;;14.98;;
58017;SDS011;43810;50.860;19.226;2023-11-19T14:27:41;29.15;;;14.80;;
58017;SDS011;43810;50.860;19.226;2023-11-19T14:30:09;30.10;;;15.60;;
58017;SDS011;43810;50.860;19.226;2023-11-19T14:32:39;30.63;;;14.98;;
58017;SDS011;43810;50.860;19.226;2023-11-19T14:35:07;26.73;;;14.18;;
58017;SDS011;43810;50.860;19.226;2023-11-19T14:37:33;25.45;;;12.07;;
58017;SDS011;43810;50.860;19.226;2023-11-19T14:40:00;31.00;;;15.13;;
58017;SDS011;43810;50.860;19.226;2023-11-19T14:42:27;26.42;;;14.88;;
58017;SDS011;43810;50.860;19.226;2023-11-19T14:44:53;29.42;;;13.15;;
58017;SDS011;43810;50.860;19.226;2023-11-19T14:47:19;31.08;;;15.43;;
58017;SDS011;43810;50.860;19.226;2023-11-19T14:49:46;32.72;;;14.20;;
58017;SDS011;43810;50.860;19.226;2023-11-19T14:52:11;26.98;;;14.70;;
58017;SDS011;43810;50.860;19.226;2023-11-19T14:54:37;25.02;;;13.27;;
58017;SDS011;43810;50.860;19.226;2023-11-19T14:57:04;27.15;;;12.93;;